Time;durP1;ratioP1;P1;durP2;ratioP2;P2;SDS_P1;SDS_P2;PMS_P1;PMS_P2;Temp;Humidity;BMP_temperature;BMP_pressure;BME280_temperature;BME280_humidity;BME280_pressure;Samples;Min_cycle;Max_cycle;Signal;HPM_P1;HPM_P2
2021/03/15 00:00:25;;;;;;;;;57.75;47.00;;;;;-142.71;100.00;64517.53;3725270;38;20694;-60
2021/03/15 00:02:53;;;;;;;;;56.00;46.25;;;;;-142.71;100.00;64517.53;3725532;37;20673;-60
2021/03/15 00:05:20;;;;;;;;;62.00;47.00;;;;;-142.71;100.00;64517.53;3725007;38;20666;-60
2021/03/15 00:07:47;;;;;;;;;60.75;48.50;;;;;-142.71;100.00;64517.53;3725265;38;20643;-59
2021/03/15 00:10:14;;;;;;;;;58.75;47.25;;;;;-142.71;100.00;64517.53;3725165;37;20629;-60
2021/03/15 00:12:41;;;;;;;;;63.50;49.50;;;;;-142.71;100.00;64517.53;3725442;37;20636;-60
2021/03/15 00:15:16;;;;;;;;;63.50;48.25;;;;;-142.71;100.00;64517.53;3725762;38;20655;-59
2021/03/15 00:17:43;;;;;;;;;62.00;49.00;;;;;-142.71;100.00;64517.53;3725696;37;20654;-59
2021/03/15 00:20:17;;;;;;;;;62.00;47.50;;;;;-142.71;100.00;64517.53;3738906;38;20633;-59
2021/03/15 00:22:48;;;;;;;;;56.25;47.00;;;;;-142.71;100.00;64517.53;3739784;37;20647;-61
2021/03/15 00:25:17;;;;;;;;;60.50;48.00;;;;;-142.71;100.00;64517.53;3725232;38;20630;-60
2021/03/15 00:27:51;;;;;;;;;60.75;48.75;;;;;-142.71;100.00;64517.53;3733168;37;20639;-58
2021/03/15 00:30:19;;;;;;;;;60.50;49.75;;;;;-142.71;100.00;64517.53;3733633;37;20624;-59
2021/03/15 00:32:47;;;;;;;;;63.25;45.25;;;;;-142.71;100.00;64517.53;3731272;38;20604;-58
2021/03/15 00:35:15;;;;;;;;;61.75;49.25;;;;;-142.71;100.00;64517.53;3725673;37;20618;-58
2021/03/15 00:37:45;;;;;;;;;65.25;50.25;;;;;-142.71;100.00;64517.53;3725535;38;20601;-61
2021/03/15 00:40:16;;;;;;;;;53.25;41.00;;;;;-142.71;100.00;64517.53;3724926;37;20599;-59
2021/03/15 00:42:45;;;;;;;;;63.00;47.00;;;;;-142.71;100.00;64517.53;3724958;37;20609;-60
2021/03/15 00:45:12;;;;;;;;;54.75;44.50;;;;;-142.71;100.00;64517.53;3725470;37;20589;-62
2021/03/15 00:47:39;;;;;;;;;61.75;48.25;;;;;-142.71;100.00;64517.53;3726071;37;20627;-60
2021/03/15 00:50:11;;;;;;;;;57.50;46.00;;;;;-142.71;100.00;64517.53;3725523;38;20595;-60
2021/03/15 00:52:37;;;;;;;;;62.00;47.25;;;;;-142.71;100.00;64517.53;3725480;38;20590;-62
2021/03/15 00:55:05;;;;;;;;;61.75;48.00;;;;;-142.71;100.00;64517.53;3726144;38;20638;-61
2021/03/15 00:57:38;;;;;;;;;60.75;50.25;;;;;-142.71;100.00;64517.53;3725375;38;20589;-59
2021/03/15 01:00:08;;;;;;;;;57.75;45.50;;;;;-142.71;100.00;64517.53;3724461;38;20476;-61
2021/03/15 01:02:34;;;;;;;;;56.50;45.00;;;;;-142.71;100.00;64517.53;3724301;37;20598;-62
2021/03/15 01:05:02;;;;;;;;;58.00;44.50;;;;;-142.71;100.00;64517.53;3724998;37;20593;-59
2021/03/15 01:07:29;;;;;;;;;57.00;47.25;;;;;-142.71;100.00;64517.53;3724816;38;20661;-59
2021/03/15 01:09:56;;;;;;;;;60.25;46.50;;;;;-142.71;100.00;64517.53;3725235;37;20560;-61
2021/03/15 01:12:23;;;;;;;;;51.25;38.00;;;;;-142.71;100.00;64517.53;3725249;38;21498;-63
2021/03/15 01:14:50;;;;;;;;;53.25;43.00;;;;;-142.71;100.00;64517.53;3725208;38;21549;-59
2021/03/15 01:17:19;;;;;;;;;62.25;49.50;;;;;-142.71;100.00;64517.53;3724780;37;21557;-59
2021/03/15 01:19:47;;;;;;;;;53.75;41.50;;;;;-142.71;100.00;64517.53;3724740;38;20568;-61
2021/03/15 01:22:13;;;;;;;;;52.50;44.25;;;;;-142.71;100.00;64517.53;3724645;37;21536;-59
2021/03/15 01:24:39;;;;;;;;;59.50;46.00;;;;;-142.71;100.00;64517.53;3724991;37;21538;-61
2021/03/15 01:27:07;;;;;;;;;60.50;47.50;;;;;-142.71;100.00;64517.53;3724983;38;21534;-60
2021/03/15 01:29:34;;;;;;;;;61.00;46.50;;;;;-142.71;100.00;64517.53;3725172;37;21561;-60
2021/03/15 01:32:01;;;;;;;;;55.75;44.75;;;;;-142.71;100.00;64517.53;3725126;38;21523;-62
2021/03/15 01:34:28;;;;;;;;;58.25;44.25;;;;;-142.71;100.00;64517.53;3724788;37;21544;-61
2021/03/15 01:36:54;;;;;;;;;63.25;43.75;;;;;-142.71;100.00;64517.53;3724690;37;21547;-61
2021/03/15 01:39:26;;;;;;;;;57.50;45.25;;;;;-142.71;100.00;64517.53;3725132;37;21528;-62
2021/03/15 01:41:53;;;;;;;;;59.75;46.00;;;;;-142.71;100.00;64517.53;3725075;37;21625;-60
2021/03/15 01:44:19;;;;;;;;;63.00;49.75;;;;;-142.71;100.00;64517.53;3724715;38;21524;-60
2021/03/15 01:46:47;;;;;;;;;60.25;47.50;;;;;-142.71;100.00;64517.53;3725264;37;21505;-60
2021/03/15 01:49:15;;;;;;;;;51.00;42.00;;;;;-142.71;100.00;64517.53;3725066;37;21510;-60
2021/03/15 01:51:41;;;;;;;;;55.50;43.50;;;;;-142.71;100.00;64517.53;3725187;38;21525;-61
2021/03/15 01:54:13;;;;;;;;;60.25;47.50;;;;;-142.71;100.00;64517.53;3725138;37;21512;-59
2021/03/15 01:56:41;;;;;;;;;57.00;47.00;;;;;-142.71;100.00;64517.53;3725216;38;21526;-60
2021/03/15 01:59:08;;;;;;;;;59.25;45.75;;;;;-142.71;100.00;64517.53;3725173;38;21521;-58
2021/03/15 02:01:36;;;;;;;;;61.25;48.00;;;;;-142.71;100.00;64517.53;3725157;38;21508;-60
2021/03/15 02:04:03;;;;;;;;;67.50;49.00;;;;;-142.71;100.00;64517.53;3725257;38;21486;-59
2021/03/15 02:06:30;;;;;;;;;58.75;46.75;;;;;-142.71;100.00;64517.53;3725282;37;21487;-61
2021/03/15 02:08:57;;;;;;;;;63.25;49.50;;;;;-142.71;100.00;64517.53;3725083;38;21471;-62
2021/03/15 02:11:50;;;;;;;;;54.50;43.25;;;;;-142.71;100.00;64517.53;3725257;38;21483;-61
2021/03/15 02:15:11;;;;;;;;;57.25;44.50;;;;;-142.71;100.00;64517.53;3725262;38;21494;-62
2021/03/15 02:18:21;;;;;;;;;60.25;49.50;;;;;-142.71;100.00;64517.53;3725332;37;21472;-61
2021/03/15 02:21:24;;;;;;;;;62.00;47.75;;;;;-142.71;100.00;64517.53;3725202;38;21508;-59
2021/03/15 02:24:02;;;;;;;;;63.50;48.25;;;;;-142.71;100.00;64517.53;3725247;37;21476;-60
2021/03/15 02:27:00;;;;;;;;;60.50;46.50;;;;;-142.71;100.00;64517.53;3725328;37;21496;-60
2021/03/15 02:29:58;;;;;;;;;53.00;44.50;;;;;-142.71;100.00;64517.53;3724836;37;21477;-60
2021/03/15 02:32:57;;;;;;;;;51.50;43.00;;;;;-142.71;100.00;64517.53;3724899;38;21457;-60
2021/03/15 02:35:28;;;;;;;;;59.25;44.25;;;;;-142.71;100.00;64517.53;3725230;38;21430;-60
2021/03/15 02:38:03;;;;;;;;;58.50;45.75;;;;;-142.71;100.00;64517.53;3725050;37;21454;-61
2021/03/15 02:40:56;;;;;;;;;57.50;45.25;;;;;-142.71;100.00;64517.53;3724901;37;21447;-61
2021/03/15 02:43:29;;;;;;;;;58.25;46.25;;;;;-142.71;100.00;64517.53;3725419;38;21418;-61
2021/03/15 02:46:11;;;;;;;;;61.25;46.25;;;;;-142.71;100.00;64517.53;3725369;37;21473;-62
2021/03/15 02:48:38;;;;;;;;;61.00;47.75;;;;;-142.71;100.00;64517.53;3725464;37;21738;-59
2021/03/15 02:51:06;;;;;;;;;61.50;49.75;;;;;-142.71;100.00;64517.53;3725266;37;21381;-59
2021/03/15 02:53:34;;;;;;;;;60.00;46.50;;;;;-142.71;100.00;64517.53;3725266;37;21425;-61
2021/03/15 02:56:21;;;;;;;;;62.50;49.25;;;;;-142.71;100.00;64517.53;3724772;38;21445;-59
2021/03/15 02:58:52;;;;;;;;;63.00;48.50;;;;;-142.71;100.00;64517.53;3724811;37;21438;-60
2021/03/15 03:01:21;;;;;;;;;59.75;48.00;;;;;-142.71;100.00;64517.53;3725378;37;21406;-59
2021/03/15 03:03:50;;;;;;;;;65.00;52.00;;;;;-142.71;100.00;64517.53;3724989;38;21404;-61
2021/03/15 03:06:21;;;;;;;;;62.25;48.00;;;;;-142.71;100.00;64517.53;3724821;38;21431;-58
2021/03/15 03:08:49;;;;;;;;;57.50;47.00;;;;;-142.71;100.00;64517.53;3724951;38;21481;-61
2021/03/15 03:11:18;;;;;;;;;66.50;50.25;;;;;-142.71;100.00;64517.53;3725332;37;21401;-62
2021/03/15 03:13:47;;;;;;;;;61.25;49.75;;;;;-142.71;100.00;64517.53;3725422;38;21423;-62
2021/03/15 03:16:14;;;;;;;;;60.00;46.25;;;;;-142.71;100.00;64517.53;3725136;38;21405;-59
2021/03/15 03:18:45;;;;;;;;;62.00;47.75;;;;;-142.71;100.00;64517.53;3724925;38;21423;-59
2021/03/15 03:21:12;;;;;;;;;59.00;47.00;;;;;-142.71;100.00;64517.53;3725498;38;21397;-60
2021/03/15 03:23:42;;;;;;;;;66.25;50.25;;;;;-142.71;100.00;64517.53;3725379;37;21405;-59
2021/03/15 03:26:09;;;;;;;;;62.75;50.75;;;;;-142.71;100.00;64517.53;3725690;38;21389;-59
2021/03/15 03:28:38;;;;;;;;;72.25;53.75;;;;;-142.71;100.00;64517.53;3725297;37;21414;-60
2021/03/15 03:31:14;;;;;;;;;72.00;56.75;;;;;-142.71;100.00;64517.53;3725392;37;21399;-59
2021/03/15 03:33:43;;;;;;;;;71.25;53.75;;;;;-142.71;100.00;64517.53;3725492;38;21376;-61
2021/03/15 03:36:11;;;;;;;;;73.50;54.00;;;;;-142.71;100.00;64517.53;3725006;37;21383;-59
2021/03/15 03:38:40;;;;;;;;;72.25;53.75;;;;;-142.71;100.00;64517.53;3725225;38;21380;-59
2021/03/15 03:41:07;;;;;;;;;71.25;55.25;;;;;-142.71;100.00;64517.53;3725161;37;21390;-60
2021/03/15 03:43:35;;;;;;;;;67.25;52.25;;;;;-142.71;100.00;64517.53;3726166;37;21370;-58
2021/03/15 03:46:02;;;;;;;;;74.00;55.50;;;;;-142.71;100.00;64517.53;3724754;37;21358;-60
2021/03/15 03:48:36;;;;;;;;;73.00;55.00;;;;;-142.71;100.00;64517.53;3725171;38;21390;-58
2021/03/15 03:51:04;;;;;;;;;67.00;54.25;;;;;-142.71;100.00;64517.53;3725182;38;21353;-57
2021/03/15 03:53:43;;;;;;;;;72.50;54.50;;;;;-142.71;100.00;64517.53;3725139;37;21339;-60
2021/03/15 03:56:14;;;;;;;;;75.00;58.00;;;;;-142.71;100.00;64517.53;3724900;37;21366;-59
2021/03/15 03:58:48;;;;;;;;;72.75;54.50;;;;;-142.71;100.00;64517.53;3725628;37;21375;-59
2021/03/15 04:01:23;;;;;;;;;71.50;55.75;;;;;-142.71;100.00;64517.53;3724929;37;21338;-60
2021/03/15 04:03:54;;;;;;;;;69.75;54.75;;;;;-142.71;100.00;64517.53;3725200;37;21329;-61
2021/03/15 04:06:24;;;;;;;;;71.25;55.25;;;;;-142.71;100.00;64517.53;3725432;38;21449;-59
2021/03/15 04:09:03;;;;;;;;;64.50;50.50;;;;;-142.71;100.00;64517.53;3725702;38;21354;-60
2021/03/15 04:11:33;;;;;;;;;78.75;58.00;;;;;-142.71;100.00;64517.53;3725050;38;21357;-61
2021/03/15 04:14:00;;;;;;;;;75.25;59.00;;;;;-142.71;100.00;64517.53;3729133;38;21351;-60
2021/03/15 04:16:31;;;;;;;;;71.50;52.00;;;;;-142.71;100.00;64517.53;3732400;37;21351;-60
2021/03/15 04:19:04;;;;;;;;;72.00;53.00;;;;;-142.71;100.00;64517.53;3730578;37;21346;-63
2021/03/15 04:21:34;;;;;;;;;75.50;57.00;;;;;-142.71;100.00;64517.53;3725552;37;21338;-61
2021/03/15 04:24:06;;;;;;;;;76.25;58.50;;;;;-142.71;100.00;64517.53;3733097;37;21309;-60
2021/03/15 04:26:34;;;;;;;;;69.50;55.00;;;;;-142.71;100.00;64517.53;3732536;37;21294;-61
2021/03/15 04:29:02;;;;;;;;;75.75;56.75;;;;;-142.71;100.00;64517.53;3732335;37;21302;-60
2021/03/15 04:31:30;;;;;;;;;68.00;53.50;;;;;-142.71;100.00;64517.53;3725236;38;21318;-62
2021/03/15 04:33:57;;;;;;;;;79.75;58.50;;;;;-142.71;100.00;64517.53;3725059;38;21308;-63
2021/03/15 04:36:30;;;;;;;;;72.75;56.25;;;;;-142.71;100.00;64517.53;3725268;37;21301;-62
2021/03/15 04:38:59;;;;;;;;;68.50;53.75;;;;;-142.71;100.00;64517.53;3724988;37;21289;-61
2021/03/15 04:41:31;;;;;;;;;72.75;56.75;;;;;-142.71;100.00;64517.53;3724714;37;21309;-61
2021/03/15 04:44:03;;;;;;;;;76.50;56.75;;;;;-142.71;100.00;64517.53;3725480;38;21294;-62
2021/03/15 04:46:31;;;;;;;;;71.25;55.75;;;;;-142.71;100.00;64517.53;3725894;38;21314;-62
2021/03/15 04:49:03;;;;;;;;;70.75;56.25;;;;;-142.71;100.00;64517.53;3725683;38;21208;-62
2021/03/15 04:51:33;;;;;;;;;71.50;54.75;;;;;-142.71;100.00;64517.53;3725655;37;21289;-61
2021/03/15 04:53:59;;;;;;;;;82.25;63.00;;;;;-142.71;100.00;64517.53;3726794;38;21285;-62
2021/03/15 04:56:28;;;;;;;;;75.25;55.25;;;;;-142.71;100.00;64517.53;3726449;38;21260;-63
2021/03/15 04:58:58;;;;;;;;;71.75;57.00;;;;;-142.71;100.00;64517.53;3725372;37;21277;-60
2021/03/15 05:01:34;;;;;;;;;77.25;57.00;;;;;-142.71;100.00;64517.53;3725835;37;21265;-61
2021/03/15 05:04:04;;;;;;;;;72.00;56.75;;;;;-142.71;100.00;64517.53;3724915;38;21263;-61
2021/03/15 05:06:38;;;;;;;;;71.50;54.50;;;;;-142.71;100.00;64517.53;3724522;37;21263;-62
2021/03/15 05:09:08;;;;;;;;;81.00;59.50;;;;;-142.71;100.00;64517.53;3725298;37;21259;-60
2021/03/15 05:11:37;;;;;;;;;78.50;58.00;;;;;-142.71;100.00;64517.53;3725148;37;21276;-60
2021/03/15 05:14:06;;;;;;;;;76.25;58.00;;;;;-142.71;100.00;64517.53;3725676;38;21272;-60
2021/03/15 05:16:42;;;;;;;;;77.50;58.00;;;;;-142.71;100.00;64517.53;3725826;37;21326;-60
2021/03/15 05:19:11;;;;;;;;;74.25;56.75;;;;;-142.71;100.00;64517.53;3725261;38;21275;-60
2021/03/15 05:21:46;;;;;;;;;80.50;58.75;;;;;-142.71;100.00;64517.53;3725627;37;21268;-62
2021/03/15 05:24:15;;;;;;;;;78.00;58.50;;;;;-142.71;100.00;64517.53;3725310;38;21232;-62
2021/03/15 05:26:47;;;;;;;;;80.50;60.75;;;;;-142.71;100.00;64517.53;3725410;38;21236;-60
2021/03/15 05:29:17;;;;;;;;;75.00;56.50;;;;;-142.71;100.00;64517.53;3725691;37;21262;-60
2021/03/15 05:31:48;;;;;;;;;78.75;59.00;;;;;-142.71;100.00;64517.53;3725693;38;18316;-62
2021/03/15 05:34:19;;;;;;;;;73.50;56.50;;;;;-142.71;100.00;64517.53;3725917;37;18285;-60
2021/03/15 05:36:51;;;;;;;;;72.50;55.50;;;;;-142.71;100.00;64517.53;3725769;37;21237;-61
2021/03/15 05:39:18;;;;;;;;;77.75;59.50;;;;;-142.71;100.00;64517.53;3725495;38;21245;-62
2021/03/15 05:42:42;;;;;;;;;73.75;56.50;;;;;-142.71;100.00;64517.53;3725631;38;21213;-61
2021/03/15 05:45:52;;;;;;;;;73.75;54.75;;;;;-142.71;100.00;64517.53;3725691;37;21225;-60
2021/03/15 05:49:09;;;;;;;;;78.00;58.25;;;;;-142.71;100.00;64517.53;3726219;37;21268;-61
2021/03/15 05:52:07;;;;;;;;;75.00;57.00;;;;;-142.71;100.00;64517.53;3725947;38;21119;-61
2021/03/15 05:55:22;;;;;;;;;79.00;60.25;;;;;-142.71;100.00;64517.53;3728617;38;21288;-58
2021/03/15 05:58:44;;;;;;;;;74.75;55.00;;;;;-142.71;100.00;64517.53;3725522;37;21216;-57
2021/03/15 06:02:06;;;;;;;;;79.75;59.75;;;;;-142.71;100.00;64517.53;3726061;37;21211;-55
2021/03/15 06:05:17;;;;;;;;;75.25;59.25;;;;;-142.71;100.00;64517.53;3726050;38;21164;-56
2021/03/15 06:07:51;;;;;;;;;78.75;59.25;;;;;-142.71;100.00;64517.53;3725832;37;21204;-56
2021/03/15 06:10:56;;;;;;;;;81.25;58.25;;;;;-142.71;100.00;64517.53;3726168;37;21192;-56
2021/03/15 06:13:23;;;;;;;;;77.75;60.25;;;;;-142.71;100.00;64517.53;3727858;38;18267;-55
2021/03/15 06:15:50;;;;;;;;;75.00;55.00;;;;;-142.71;100.00;64517.53;3725677;37;18246;-55
2021/03/15 06:18:17;;;;;;;;;68.00;52.00;;;;;-142.71;100.00;64517.53;3725359;38;21197;-56
2021/03/15 06:20:45;;;;;;;;;77.50;56.25;;;;;-142.71;100.00;64517.53;3725456;37;21166;-55
2021/03/15 06:23:15;;;;;;;;;70.50;53.50;;;;;-142.71;100.00;64517.53;3725626;37;21182;-55
2021/03/15 06:25:47;;;;;;;;;68.00;52.00;;;;;-142.71;100.00;64517.53;3725454;38;21147;-56
2021/03/15 06:28:15;;;;;;;;;65.00;51.25;;;;;-142.71;100.00;64517.53;3725364;37;21157;-57
2021/03/15 06:30:45;;;;;;;;;71.75;51.50;;;;;-142.71;100.00;64517.53;3725159;38;21139;-56
2021/03/15 06:33:13;;;;;;;;;63.50;51.00;;;;;-142.71;100.00;64517.53;3725446;38;21160;-58
2021/03/15 06:35:44;;;;;;;;;71.75;52.50;;;;;-142.71;100.00;64517.53;3724972;38;21137;-59
2021/03/15 06:38:12;;;;;;;;;67.75;53.25;;;;;-142.71;100.00;64517.53;3725296;37;21165;-61
2021/03/15 06:40:43;;;;;;;;;63.00;52.00;;;;;-142.71;100.00;64517.53;3725444;38;21042;-60
2021/03/15 06:43:21;;;;;;;;;63.50;50.75;;;;;-142.71;100.00;64517.53;3725594;38;21165;-59
2021/03/15 06:45:51;;;;;;;;;70.00;52.75;;;;;-142.71;100.00;64517.53;3725478;37;21127;-60
2021/03/15 06:48:22;;;;;;;;;84.50;61.75;;;;;-142.71;100.00;64517.53;3724865;37;21166;-60
2021/03/15 06:50:49;;;;;;;;;77.00;58.50;;;;;-142.71;100.00;64517.53;3725271;38;18174;-60
2021/03/15 06:53:16;;;;;;;;;71.50;54.00;;;;;-142.71;100.00;64517.53;3724919;38;21158;-56
2021/03/15 06:55:50;;;;;;;;;72.25;57.25;;;;;-142.71;100.00;64517.53;3725505;38;21126;-57
2021/03/15 06:58:34;;;;;;;;;72.25;55.00;;;;;-142.71;100.00;64517.53;3725881;38;21136;-62
2021/03/15 07:01:43;;;;;;;;;67.75;52.75;;;;;-142.71;100.00;64517.53;3728231;37;21141;-62
2021/03/15 07:04:12;;;;;;;;;73.00;56.00;;;;;-142.71;100.00;64517.53;3725815;38;21147;-61
2021/03/15 07:06:43;;;;;;;;;70.50;54.75;;;;;-142.71;100.00;64517.53;3725700;37;21112;-60
2021/03/15 07:09:14;;;;;;;;;67.25;51.25;;;;;-142.71;100.00;64517.53;3725378;37;21102;-59
2021/03/15 07:11:43;;;;;;;;;67.25;49.25;;;;;-142.71;100.00;64517.53;3725331;38;21112;-63
2021/03/15 07:14:25;;;;;;;;;62.25;47.75;;;;;-142.71;100.00;64517.53;3725001;37;21106;-60
2021/03/15 07:16:59;;;;;;;;;67.00;51.00;;;;;-142.71;100.00;64517.53;3725962;37;21112;-59
2021/03/15 07:19:28;;;;;;;;;67.50;54.00;;;;;-142.71;100.00;64517.53;3726056;37;21094;-60
2021/03/15 07:21:55;;;;;;;;;64.50;49.00;;;;;-142.71;100.00;64517.53;3724834;37;21079;-61
2021/03/15 07:24:30;;;;;;;;;59.00;45.25;;;;;-142.71;100.00;64517.53;3725503;38;21111;-55
2021/03/15 07:26:56;;;;;;;;;71.00;53.75;;;;;-142.71;100.00;64517.53;3725767;38;21099;-55
2021/03/15 07:29:28;;;;;;;;;67.50;51.75;;;;;-142.71;100.00;64517.53;3725328;37;20946;-59
2021/03/15 07:31:57;;;;;;;;;63.25;49.00;;;;;-142.71;100.00;64517.53;3725509;37;21067;-56
2021/03/15 07:34:23;;;;;;;;;65.25;48.25;;;;;-142.71;100.00;64517.53;3725300;37;21069;-58
2021/03/15 07:36:52;;;;;;;;;61.50;48.25;;;;;-142.71;100.00;64517.53;3725386;38;21068;-60
2021/03/15 07:39:19;;;;;;;;;61.50;48.00;;;;;-142.71;100.00;64517.53;3725383;38;21080;-57
2021/03/15 07:41:49;;;;;;;;;55.75;44.25;;;;;-142.71;100.00;64517.53;3725390;37;21060;-59
2021/03/15 07:44:43;;;;;;;;;56.00;46.00;;;;;-142.71;100.00;64517.53;3725342;37;21067;-58
2021/03/15 07:47:09;;;;;;;;;60.50;46.75;;;;;-142.71;100.00;64517.53;3725408;38;21071;-58
2021/03/15 07:49:39;;;;;;;;;59.25;44.25;;;;;-142.71;100.00;64517.53;3725581;38;21044;-57
2021/03/15 07:52:10;;;;;;;;;59.50;46.75;;;;;-142.71;100.00;64517.53;3725531;38;21032;-58
2021/03/15 07:54:38;;;;;;;;;57.00;45.50;;;;;-142.71;100.00;64517.53;3725517;37;21041;-58
2021/03/15 07:57:28;;;;;;;;;56.75;45.25;;;;;-142.71;100.00;64517.53;3725680;38;20983;-59
2021/03/15 07:59:58;;;;;;;;;63.00;46.75;;;;;-142.71;100.00;64517.53;3725572;38;21025;-57
2021/03/15 08:02:29;;;;;;;;;64.25;46.75;;;;;-142.71;100.00;64517.53;3725199;37;21022;-58
2021/03/15 08:04:56;;;;;;;;;64.75;50.00;;;;;-142.71;100.00;64517.53;3725705;38;21026;-57
2021/03/15 08:07:24;;;;;;;;;55.75;44.50;;;;;-142.71;100.00;64517.53;3728387;38;21044;-57
2021/03/15 08:09:55;;;;;;;;;61.75;48.50;;;;;-142.71;100.00;64517.53;3728540;38;21050;-58
2021/03/15 08:12:42;;;;;;;;;62.50;47.00;;;;;-142.71;100.00;64517.53;3726008;38;21024;-57
2021/03/15 08:15:10;;;;;;;;;62.25;48.25;;;;;-142.71;100.00;64517.53;3728429;37;21021;-59
2021/03/15 08:17:51;;;;;;;;;55.00;43.25;;;;;-142.71;100.00;64517.53;3729470;37;21113;-56
2021/03/15 08:20:20;;;;;;;;;56.50;43.75;;;;;-142.71;100.00;64517.53;3727154;37;21038;-59
2021/03/15 08:22:50;;;;;;;;;67.25;48.75;;;;;-142.71;100.00;64517.53;3725732;38;21000;-58
2021/03/15 08:25:18;;;;;;;;;63.25;45.50;;;;;-142.71;100.00;64517.53;3725533;38;21002;-60
2021/03/15 08:27:49;;;;;;;;;61.00;48.00;;;;;-142.71;100.00;64517.53;3725425;38;21000;-58
2021/03/15 08:30:24;;;;;;;;;59.25;47.75;;;;;-142.71;100.00;64517.53;3725346;38;21018;-58
2021/03/15 08:32:52;;;;;;;;;62.25;46.00;;;;;-142.71;100.00;64517.53;3725510;37;20982;-58
2021/03/15 08:35:21;;;;;;;;;57.00;45.00;;;;;-142.71;100.00;64517.53;3725433;38;20974;-58
2021/03/15 08:37:54;;;;;;;;;60.50;46.75;;;;;-142.71;100.00;64517.53;3725234;37;20996;-60
2021/03/15 08:40:49;;;;;;;;;61.25;47.75;;;;;-142.71;100.00;64517.53;3725498;37;21002;-57
2021/03/15 08:43:36;;;;;;;;;65.25;50.75;;;;;-142.71;100.00;64517.53;3725546;37;20948;-59
2021/03/15 08:46:07;;;;;;;;;64.25;50.00;;;;;-142.71;100.00;64517.53;3724863;37;20971;-59
2021/03/15 08:48:56;;;;;;;;;70.50;50.75;;;;;-142.71;100.00;64517.53;3724931;38;20981;-60
2021/03/15 08:51:44;;;;;;;;;68.25;50.75;;;;;-142.71;100.00;64517.53;3725127;38;21065;-56
2021/03/15 08:54:14;;;;;;;;;63.50;48.75;;;;;-142.71;100.00;64517.53;3725526;38;20983;-58
2021/03/15 08:56:44;;;;;;;;;64.25;51.00;;;;;-142.71;100.00;64517.53;3724978;37;20939;-57
2021/03/15 08:59:12;;;;;;;;;65.75;49.75;;;;;-142.71;100.00;64517.53;3725358;37;20965;-58
2021/03/15 09:02:04;;;;;;;;;65.75;51.75;;;;;-142.71;100.00;64517.53;3727291;37;20956;-58
2021/03/15 09:04:34;;;;;;;;;63.75;46.25;;;;;-142.71;100.00;64517.53;3725604;37;20962;-58
2021/03/15 09:07:04;;;;;;;;;70.75;50.00;;;;;-142.71;100.00;64517.53;3724826;38;20969;-59
2021/03/15 09:09:34;;;;;;;;;61.00;46.75;;;;;-142.71;100.00;64517.53;3724752;38;20957;-59
2021/03/15 09:12:03;;;;;;;;;64.50;50.25;;;;;-142.71;100.00;64517.53;3725122;38;20962;-58
2021/03/15 09:14:37;;;;;;;;;57.00;47.00;;;;;-142.71;100.00;64517.53;3724768;38;20961;-57
2021/03/15 09:17:41;;;;;;;;;60.50;45.75;;;;;-142.71;100.00;64517.53;3725473;38;20924;-60
2021/03/15 09:20:22;;;;;;;;;64.50;47.75;;;;;-142.71;100.00;64517.53;3725483;38;20909;-58
2021/03/15 09:22:48;;;;;;;;;61.50;49.25;;;;;-142.71;100.00;64517.53;3725794;37;20948;-59
2021/03/15 09:25:19;;;;;;;;;60.00;48.50;;;;;-142.71;100.00;64517.53;3725544;37;20944;-60
2021/03/15 09:27:54;;;;;;;;;60.50;47.50;;;;;-142.71;100.00;64517.53;3725602;37;20927;-57
2021/03/15 09:30:35;;;;;;;;;68.00;49.75;;;;;-142.71;100.00;64517.53;3725072;37;20912;-58
2021/03/15 09:33:01;;;;;;;;;64.25;47.00;;;;;-142.71;100.00;64517.53;3725659;37;20961;-57
2021/03/15 09:35:32;;;;;;;;;55.75;43.50;;;;;-142.71;100.00;64517.53;3725542;37;20977;-58
2021/03/15 09:38:08;;;;;;;;;55.25;46.25;;;;;-142.71;100.00;64517.53;3725436;38;20965;-57
2021/03/15 09:40:46;;;;;;;;;65.50;51.00;;;;;-142.71;100.00;64517.53;3725077;37;20956;-56
2021/03/15 09:43:21;;;;;;;;;66.00;47.50;;;;;-142.71;100.00;64517.53;3725182;38;20940;-57
2021/03/15 09:45:55;;;;;;;;;61.00;44.25;;;;;-142.71;100.00;64517.53;3724984;37;20927;-60
2021/03/15 09:48:23;;;;;;;;;71.00;53.75;;;;;-142.71;100.00;64517.53;3725387;37;20947;-58
2021/03/15 09:50:55;;;;;;;;;70.25;54.00;;;;;-142.71;100.00;64517.53;3725379;38;20918;-60
2021/03/15 09:53:22;;;;;;;;;61.50;49.00;;;;;-142.71;100.00;64517.53;3725758;38;20931;-59
2021/03/15 09:55:48;;;;;;;;;62.50;48.50;;;;;-142.71;100.00;64517.53;3725250;38;20910;-59
2021/03/15 09:58:17;;;;;;;;;66.25;49.50;;;;;-142.71;100.00;64517.53;3725248;38;20926;-59
2021/03/15 10:00:54;;;;;;;;;66.50;51.25;;;;;-142.71;100.00;64517.53;3724699;38;20914;-61
2021/03/15 10:03:26;;;;;;;;;65.50;48.50;;;;;-142.71;100.00;64517.53;3725420;37;20927;-60
2021/03/15 10:05:59;;;;;;;;;65.75;49.75;;;;;-142.71;100.00;64517.53;3724770;38;20966;-56
2021/03/15 10:08:27;;;;;;;;;66.00;51.75;;;;;-142.71;100.00;64517.53;3725369;37;20925;-58
2021/03/15 10:10:54;;;;;;;;;73.75;56.00;;;;;-142.71;100.00;64517.53;3725133;38;20916;-60
2021/03/15 10:13:20;;;;;;;;;67.75;51.50;;;;;-142.71;100.00;64517.53;3725272;37;20932;-58
2021/03/15 10:15:47;;;;;;;;;72.25;52.25;;;;;-142.71;100.00;64517.53;3725245;37;20902;-59
2021/03/15 10:18:20;;;;;;;;;72.75;52.75;;;;;-142.71;100.00;64517.53;3725441;37;20904;-59
2021/03/15 10:20:49;;;;;;;;;71.50;53.25;;;;;-142.71;100.00;64517.53;3725744;38;20898;-58
2021/03/15 10:23:20;;;;;;;;;70.50;53.50;;;;;-142.71;100.00;64517.53;3725477;38;20919;-59
2021/03/15 10:26:18;;;;;;;;;61.25;46.25;;;;;-142.71;100.00;64517.53;3725302;38;20894;-59
2021/03/15 10:28:55;;;;;;;;;67.50;53.50;;;;;-142.71;100.00;64517.53;3725271;38;20871;-58
2021/03/15 10:31:22;;;;;;;;;68.50;52.00;;;;;-142.71;100.00;64517.53;3725058;38;20809;-57
2021/03/15 10:33:50;;;;;;;;;73.50;51.50;;;;;-142.71;100.00;64517.53;3724905;37;20846;-60
2021/03/15 10:36:21;;;;;;;;;68.75;51.50;;;;;-142.71;100.00;64517.53;3725264;38;20835;-56
2021/03/15 10:38:48;;;;;;;;;72.50;52.50;;;;;-142.71;100.00;64517.53;3724887;37;20860;-58
2021/03/15 10:41:16;;;;;;;;;67.25;51.25;;;;;-142.71;100.00;64517.53;3725176;38;20812;-57
2021/03/15 10:43:48;;;;;;;;;74.25;52.25;;;;;-142.71;100.00;64517.53;3725373;38;20810;-57
2021/03/15 10:46:30;;;;;;;;;64.25;51.25;;;;;-142.71;100.00;64517.53;3725243;38;21007;-60
2021/03/15 10:48:59;;;;;;;;;67.50;51.00;;;;;-142.71;100.00;64517.53;3725243;37;20811;-59
2021/03/15 10:51:27;;;;;;;;;71.00;50.75;;;;;-142.71;100.00;64517.53;3725314;37;20815;-57
2021/03/15 10:53:53;;;;;;;;;67.25;49.25;;;;;-142.71;100.00;64517.53;3725555;38;20798;-59
2021/03/15 10:56:21;;;;;;;;;65.00;48.75;;;;;-142.71;100.00;64517.53;3725433;37;20821;-58
2021/03/15 10:58:51;;;;;;;;;64.25;49.25;;;;;-142.71;100.00;64517.53;3724454;38;20822;-57
2021/03/15 11:01:26;;;;;;;;;69.25;51.25;;;;;-142.71;100.00;64517.53;3724840;37;20816;-57
2021/03/15 11:04:08;;;;;;;;;68.00;50.75;;;;;-142.71;100.00;64517.53;3725205;38;20817;-58
2021/03/15 11:06:35;;;;;;;;;64.75;49.50;;;;;-142.71;100.00;64517.53;3724956;38;20786;-57
2021/03/15 11:09:01;;;;;;;;;64.50;49.75;;;;;-142.71;100.00;64517.53;3724563;37;20791;-59
2021/03/15 11:11:34;;;;;;;;;66.25;51.25;;;;;-142.71;100.00;64517.53;3725013;38;20801;-58
2021/03/15 11:14:08;;;;;;;;;70.75;51.50;;;;;-142.71;100.00;64517.53;3725501;37;20784;-58
2021/03/15 11:16:35;;;;;;;;;64.75;49.50;;;;;-142.71;100.00;64517.53;3725486;38;20772;-57
2021/03/15 11:19:17;;;;;;;;;73.75;56.50;;;;;-142.71;100.00;64517.53;3725379;38;20774;-60
2021/03/15 11:21:46;;;;;;;;;65.50;50.00;;;;;-142.71;100.00;64517.53;3724743;38;20865;-59